sensor_id;sensor_type;location;lat;lon;timestamp;P1;durP1;ratioP1;P2;durP2;ratioP2
8708;SDS011;4391;48.678;9.280;2022-10-18T00:02:21;16.17;;;5.45;;
8708;SDS011;4391;48.678;9.280;2022-10-18T00:04:47;15.20;;;4.40;;
8708;SDS011;4391;48.678;9.280;2022-10-18T00:07:16;14.87;;;3.97;;
8708;SDS011;4391;48.678;9.280;2022-10-18T00:09:42;9.80;;;4.00;;
8708;SDS011;4391;48.678;9.280;2022-10-18T00:12:09;10.10;;;4.30;;
8708;SDS011;4391;48.678;9.280;2022-10-18T00:14:36;11.15;;;4.05;;
8708;SDS011;4391;48.678;9.280;2022-10-18T00:17:02;19.60;;;5.20;;
8708;SDS011;4391;48.678;9.280;2022-10-18T00:19:29;8.73;;;4.47;;
8708;SDS011;4391;48.678;9.280;2022-10-18T00:21:56;15.10;;;4.53;;
8708;SDS011;4391;48.678;9.280;2022-10-18T00:24:24;10.10;;;4.32;;
8708;SDS011;4391;48.678;9.280;2022-10-18T00:26:51;10.77;;;4.00;;
8708;SDS011;4391;48.678;9.280;2022-10-18T00:29:18;13.77;;;3.90;;
8708;SDS011;4391;48.678;9.280;2022-10-18T00:31:45;9.90;;;4.17;;
8708;SDS011;4391;48.678;9.280;2022-10-18T00:34:12;11.73;;;4.00;;
8708;SDS011;4391;48.678;9.280;2022-10-18T00:36:40;13.18;;;3.70;;
8708;SDS011;4391;48.678;9.280;2022-10-18T00:39:08;8.27;;;3.70;;
8708;SDS011;4391;48.678;9.280;2022-10-18T00:41:41;8.55;;;4.00;;
8708;SDS011;4391;48.678;9.280;2022-10-18T00:47:10;9.00;;;3.92;;
8708;SDS011;4391;48.678;9.280;2022-10-18T00:49:40;9.15;;;3.95;;
8708;SDS011;4391;48.678;9.280;2022-10-18T00:52:09;12.40;;;4.50;;
8708;SDS011;4391;48.678;9.280;2022-10-18T00:54:39;10.88;;;4.35;;
8708;SDS011;4391;48.678;9.280;2022-10-18T00:57:09;10.67;;;4.33;;
8708;SDS011;4391;48.678;9.280;2022-10-18T00:59:37;14.55;;;4.28;;
8708;SDS011;4391;48.678;9.280;2022-10-18T01:02:05;14.52;;;4.60;;
8708;SDS011;4391;48.678;9.280;2022-10-18T01:04:33;13.93;;;4.03;;
8708;SDS011;4391;48.678;9.280;2022-10-18T01:07:00;12.20;;;4.82;;
8708;SDS011;4391;48.678;9.280;2022-10-18T01:09:36;12.17;;;4.33;;
8708;SDS011;4391;48.678;9.280;2022-10-18T01:12:11;14.32;;;4.13;;
8708;SDS011;4391;48.678;9.280;2022-10-18T01:14:47;12.60;;;5.15;;
8708;SDS011;4391;48.678;9.280;2022-10-18T01:17:20;9.45;;;4.18;;
8708;SDS011;4391;48.678;9.280;2022-10-18T01:23:03;11.30;;;4.33;;
8708;SDS011;4391;48.678;9.280;2022-10-18T01:25:36;11.95;;;4.63;;
8708;SDS011;4391;48.678;9.280;2022-10-18T01:28:18;12.90;;;4.82;;
8708;SDS011;4391;48.678;9.280;2022-10-18T01:30:57;11.38;;;3.95;;
8708;SDS011;4391;48.678;9.280;2022-10-18T01:33:25;13.45;;;4.45;;
8708;SDS011;4391;48.678;9.280;2022-10-18T01:35:59;13.57;;;3.80;;
8708;SDS011;4391;48.678;9.280;2022-10-18T01:38:29;11.25;;;3.72;;
8708;SDS011;4391;48.678;9.280;2022-10-18T01:40:59;9.63;;;3.65;;
8708;SDS011;4391;48.678;9.280;2022-10-18T01:43:28;10.00;;;3.72;;
8708;SDS011;4391;48.678;9.280;2022-10-18T01:45:58;9.38;;;3.75;;
8708;SDS011;4391;48.678;9.280;2022-10-18T01:48:26;9.00;;;3.87;;
8708;SDS011;4391;48.678;9.280;2022-10-18T01:50:54;8.40;;;3.50;;
8708;SDS011;4391;48.678;9.280;2022-10-18T01:53:26;9.23;;;3.75;;
8708;SDS011;4391;48.678;9.280;2022-10-18T01:55:57;13.90;;;3.80;;
8708;SDS011;4391;48.678;9.280;2022-10-18T01:58:34;7.82;;;3.80;;
8708;SDS011;4391;48.678;9.280;2022-10-18T02:01:09;13.87;;;3.47;;
8708;SDS011;4391;48.678;9.280;2022-10-18T02:03:44;10.73;;;3.42;;
8708;SDS011;4391;48.678;9.280;2022-10-18T02:06:14;11.65;;;3.38;;
8708;SDS011;4391;48.678;9.280;2022-10-18T02:08:45;23.70;;;4.18;;
8708;SDS011;4391;48.678;9.280;2022-10-18T02:11:17;8.70;;;3.70;;
8708;SDS011;4391;48.678;9.280;2022-10-18T02:13:45;7.73;;;3.23;;
8708;SDS011;4391;48.678;9.280;2022-10-18T02:16:18;13.23;;;3.30;;
8708;SDS011;4391;48.678;9.280;2022-10-18T02:18:47;7.70;;;3.30;;
8708;SDS011;4391;48.678;9.280;2022-10-18T02:21:17;8.50;;;3.58;;
8708;SDS011;4391;48.678;9.280;2022-10-18T02:23:46;13.70;;;3.67;;
8708;SDS011;4391;48.678;9.280;2022-10-18T02:26:14;10.20;;;3.10;;
8708;SDS011;4391;48.678;9.280;2022-10-18T02:28:41;8.05;;;3.25;;
8708;SDS011;4391;48.678;9.280;2022-10-18T02:31:09;7.63;;;3.22;;
8708;SDS011;4391;48.678;9.280;2022-10-18T02:33:44;16.70;;;3.60;;
8708;SDS011;4391;48.678;9.280;2022-10-18T02:36:17;9.15;;;3.42;;
8708;SDS011;4391;48.678;9.280;2022-10-18T02:38:49;9.40;;;3.10;;
8708;SDS011;4391;48.678;9.280;2022-10-18T02:41:23;12.13;;;4.25;;
8708;SDS011;4391;48.678;9.280;2022-10-18T02:43:51;7.65;;;3.10;;
8708;SDS011;4391;48.678;9.280;2022-10-18T02:46:18;10.38;;;2.90;;
8708;SDS011;4391;48.678;9.280;2022-10-18T02:48:46;9.98;;;3.10;;
8708;SDS011;4391;48.678;9.280;2022-10-18T02:51:13;10.77;;;3.00;;
8708;SDS011;4391;48.678;9.280;2022-10-18T02:53:40;8.85;;;3.25;;
8708;SDS011;4391;48.678;9.280;2022-10-18T02:56:07;8.48;;;3.30;;
8708;SDS011;4391;48.678;9.280;2022-10-18T02:58:34;12.68;;;3.40;;
8708;SDS011;4391;48.678;9.280;2022-10-18T03:01:01;12.30;;;3.30;;
8708;SDS011;4391;48.678;9.280;2022-10-18T03:03:28;7.40;;;3.40;;
8708;SDS011;4391;48.678;9.280;2022-10-18T03:05:56;6.28;;;3.13;;
8708;SDS011;4391;48.678;9.280;2022-10-18T03:08:23;11.98;;;3.35;;
8708;SDS011;4391;48.678;9.280;2022-10-18T03:10:50;8.77;;;3.42;;
8708;SDS011;4391;48.678;9.280;2022-10-18T03:13:17;12.55;;;3.47;;
8708;SDS011;4391;48.678;9.280;2022-10-18T03:15:43;9.47;;;2.83;;
8708;SDS011;4391;48.678;9.280;2022-10-18T03:18:11;6.97;;;3.20;;
8708;SDS011;4391;48.678;9.280;2022-10-18T03:20:38;10.48;;;3.30;;
8708;SDS011;4391;48.678;9.280;2022-10-18T03:23:07;13.05;;;3.30;;
8708;SDS011;4391;48.678;9.280;2022-10-18T03:25:33;8.55;;;3.60;;
8708;SDS011;4391;48.678;9.280;2022-10-18T03:28:00;8.13;;;3.10;;
8708;SDS011;4391;48.678;9.280;2022-10-18T03:30:27;7.32;;;3.40;;
8708;SDS011;4391;48.678;9.280;2022-10-18T03:32:53;14.07;;;3.13;;
8708;SDS011;4391;48.678;9.280;2022-10-18T03:35:20;8.98;;;3.03;;
8708;SDS011;4391;48.678;9.280;2022-10-18T03:37:47;9.70;;;4.03;;
8708;SDS011;4391;48.678;9.280;2022-10-18T03:40:15;11.03;;;3.70;;
8708;SDS011;4391;48.678;9.280;2022-10-18T03:42:42;12.57;;;3.60;;
8708;SDS011;4391;48.678;9.280;2022-10-18T03:45:09;9.27;;;3.60;;
8708;SDS011;4391;48.678;9.280;2022-10-18T03:47:36;10.18;;;3.53;;
8708;SDS011;4391;48.678;9.280;2022-10-18T03:50:03;5.35;;;2.95;;
8708;SDS011;4391;48.678;9.280;2022-10-18T03:52:30;9.43;;;3.40;;
8708;SDS011;4391;48.678;9.280;2022-10-18T03:54:57;10.48;;;3.30;;
8708;SDS011;4391;48.678;9.280;2022-10-18T03:57:25;7.55;;;3.25;;
8708;SDS011;4391;48.678;9.280;2022-10-18T03:59:51;14.32;;;3.13;;
8708;SDS011;4391;48.678;9.280;2022-10-18T04:02:18;8.18;;;3.20;;
8708;SDS011;4391;48.678;9.280;2022-10-18T04:04:45;7.40;;;2.80;;
8708;SDS011;4391;48.678;9.280;2022-10-18T04:07:12;7.65;;;3.50;;
8708;SDS011;4391;48.678;9.280;2022-10-18T04:09:39;10.52;;;3.88;;
8708;SDS011;4391;48.678;9.280;2022-10-18T04:12:05;10.32;;;3.95;;
8708;SDS011;4391;48.678;9.280;2022-10-18T04:14:33;10.18;;;3.70;;
8708;SDS011;4391;48.678;9.280;2022-10-18T04:17:00;12.30;;;3.93;;
8708;SDS011;4391;48.678;9.280;2022-10-18T04:19:28;6.95;;;3.30;;
8708;SDS011;4391;48.678;9.280;2022-10-18T04:21:55;8.55;;;3.10;;
8708;SDS011;4391;48.678;9.280;2022-10-18T04:24:22;14.93;;;3.30;;
8708;SDS011;4391;48.678;9.280;2022-10-18T04:26:49;10.27;;;3.40;;
8708;SDS011;4391;48.678;9.280;2022-10-18T04:29:15;7.10;;;3.03;;
8708;SDS011;4391;48.678;9.280;2022-10-18T04:31:43;9.23;;;3.00;;
8708;SDS011;4391;48.678;9.280;2022-10-18T04:34:10;9.90;;;3.30;;
8708;SDS011;4391;48.678;9.280;2022-10-18T04:36:37;9.07;;;3.15;;
8708;SDS011;4391;48.678;9.280;2022-10-18T04:39:04;12.38;;;3.38;;
8708;SDS011;4391;48.678;9.280;2022-10-18T04:41:30;10.23;;;3.23;;
8708;SDS011;4391;48.678;9.280;2022-10-18T04:43:57;8.55;;;3.20;;
8708;SDS011;4391;48.678;9.280;2022-10-18T04:46:24;12.82;;;4.03;;
8708;SDS011;4391;48.678;9.280;2022-10-18T04:48:52;7.32;;;3.80;;
8708;SDS011;4391;48.678;9.280;2022-10-18T04:51:19;12.25;;;3.67;;
8708;SDS011;4391;48.678;9.280;2022-10-18T04:53:45;11.93;;;3.60;;
8708;SDS011;4391;48.678;9.280;2022-10-18T04:56:12;5.95;;;3.42;;
8708;SDS011;4391;48.678;9.280;2022-10-18T04:58:39;11.25;;;3.33;;
8708;SDS011;4391;48.678;9.280;2022-10-18T05:01:06;8.13;;;3.15;;
8708;SDS011;4391;48.678;9.280;2022-10-18T05:03:33;10.80;;;3.60;;
8708;SDS011;4391;48.678;9.280;2022-10-18T05:06:01;7.40;;;3.37;;
8708;SDS011;4391;48.678;9.280;2022-10-18T05:08:30;12.13;;;3.38;;
8708;SDS011;4391;48.678;9.280;2022-10-18T05:10:57;8.05;;;3.10;;
8708;SDS011;4391;48.678;9.280;2022-10-18T05:13:24;9.88;;;3.20;;
8708;SDS011;4391;48.678;9.280;2022-10-18T05:15:51;10.10;;;3.92;;
8708;SDS011;4391;48.678;9.280;2022-10-18T05:18:18;10.70;;;2.90;;
8708;SDS011;4391;48.678;9.280;2022-10-18T05:20:45;6.40;;;2.97;;
8708;SDS011;4391;48.678;9.280;2022-10-18T05:23:13;19.88;;;4.03;;
8708;SDS011;4391;48.678;9.280;2022-10-18T05:25:40;11.15;;;3.22;;
8708;SDS011;4391;48.678;9.280;2022-10-18T05:28:07;10.02;;;3.42;;
8708;SDS011;4391;48.678;9.280;2022-10-18T05:30:36;7.83;;;3.07;;
8708;SDS011;4391;48.678;9.280;2022-10-18T05:33:03;7.70;;;2.80;;
8708;SDS011;4391;48.678;9.280;2022-10-18T05:35:29;13.25;;;2.90;;
8708;SDS011;4391;48.678;9.280;2022-10-18T05:37:57;9.32;;;3.25;;
8708;SDS011;4391;48.678;9.280;2022-10-18T05:40:25;6.97;;;2.83;;
8708;SDS011;4391;48.678;9.280;2022-10-18T05:42:51;8.47;;;2.67;;
8708;SDS011;4391;48.678;9.280;2022-10-18T05:45:18;9.95;;;2.92;;
8708;SDS011;4391;48.678;9.280;2022-10-18T05:47:45;7.47;;;3.13;;
8708;SDS011;4391;48.678;9.280;2022-10-18T05:50:12;9.95;;;2.70;;
8708;SDS011;4391;48.678;9.280;2022-10-18T05:52:39;8.98;;;2.90;;
8708;SDS011;4391;48.678;9.280;2022-10-18T05:55:06;9.30;;;2.80;;
8708;SDS011;4391;48.678;9.280;2022-10-18T05:57:34;12.52;;;3.72;;
8708;SDS011;4391;48.678;9.280;2022-10-18T06:00:02;8.20;;;3.70;;
8708;SDS011;4391;48.678;9.280;2022-10-18T06:02:29;9.45;;;3.20;;
8708;SDS011;4391;48.678;9.280;2022-10-18T06:04:56;8.90;;;3.65;;
8708;SDS011;4391;48.678;9.280;2022-10-18T06:07:23;7.57;;;3.10;;
8708;SDS011;4391;48.678;9.280;2022-10-18T06:09:50;10.70;;;2.85;;
8708;SDS011;4391;48.678;9.280;2022-10-18T06:12:16;9.90;;;3.03;;
8708;SDS011;4391;48.678;9.280;2022-10-18T06:14:44;10.45;;;3.88;;
8708;SDS011;4391;48.678;9.280;2022-10-18T06:17:13;10.32;;;3.13;;
8708;SDS011;4391;48.678;9.280;2022-10-18T06:19:40;6.37;;;3.27;;
8708;SDS011;4391;48.678;9.280;2022-10-18T06:22:08;6.55;;;3.53;;
8708;SDS011;4391;48.678;9.280;2022-10-18T06:24:35;8.65;;;3.47;;
8708;SDS011;4391;48.678;9.280;2022-10-18T06:27:02;9.27;;;3.72;;
8708;SDS011;4391;48.678;9.280;2022-10-18T06:29:32;11.10;;;3.45;;
8708;SDS011;4391;48.678;9.280;2022-10-18T06:32:01;10.77;;;3.30;;
8708;SDS011;4391;48.678;9.280;2022-10-18T06:34:27;7.90;;;3.08;;
8708;SDS011;4391;48.678;9.280;2022-10-18T06:36:54;11.98;;;3.55;;
8708;SDS011;4391;48.678;9.280;2022-10-18T06:39:21;8.50;;;2.80;;
8708;SDS011;4391;48.678;9.280;2022-10-18T06:41:48;10.60;;;3.45;;
8708;SDS011;4391;48.678;9.280;2022-10-18T06:44:14;6.47;;;3.17;;
8708;SDS011;4391;48.678;9.280;2022-10-18T06:46:42;12.68;;;3.45;;
8708;SDS011;4391;48.678;9.280;2022-10-18T06:49:11;8.05;;;3.20;;
8708;SDS011;4391;48.678;9.280;2022-10-18T06:51:39;15.65;;;3.45;;
8708;SDS011;4391;48.678;9.280;2022-10-18T06:54:06;6.78;;;3.25;;
8708;SDS011;4391;48.678;9.280;2022-10-18T06:56:33;6.87;;;3.67;;
8708;SDS011;4391;48.678;9.280;2022-10-18T06:59:00;14.65;;;4.22;;
8708;SDS011;4391;48.678;9.280;2022-10-18T07:01:27;8.95;;;3.20;;
8708;SDS011;4391;48.678;9.280;2022-10-18T07:03:54;12.07;;;3.13;;
8708;SDS011;4391;48.678;9.280;2022-10-18T07:06:23;6.20;;;2.90;;
8708;SDS011;4391;48.678;9.280;2022-10-18T07:08:50;8.90;;;3.00;;
8708;SDS011;4391;48.678;9.280;2022-10-18T07:11:18;7.70;;;2.95;;
8708;SDS011;4391;48.678;9.280;2022-10-18T07:16:16;8.13;;;2.75;;
8708;SDS011;4391;48.678;9.280;2022-10-18T07:18:44;10.27;;;3.00;;
8708;SDS011;4391;48.678;9.280;2022-10-18T07:21:13;7.90;;;3.00;;
8708;SDS011;4391;48.678;9.280;2022-10-18T07:23:43;9.65;;;2.67;;
8708;SDS011;4391;48.678;9.280;2022-10-18T07:26:11;7.03;;;2.60;;
8708;SDS011;4391;48.678;9.280;2022-10-18T07:28:40;8.07;;;2.80;;
8708;SDS011;4391;48.678;9.280;2022-10-18T07:31:07;8.38;;;2.80;;
8708;SDS011;4391;48.678;9.280;2022-10-18T07:33:35;7.73;;;2.80;;
8708;SDS011;4391;48.678;9.280;2022-10-18T07:36:03;8.25;;;2.88;;
8708;SDS011;4391;48.678;9.280;2022-10-18T07:38:31;5.82;;;2.67;;
8708;SDS011;4391;48.678;9.280;2022-10-18T07:40:59;5.32;;;2.40;;
8708;SDS011;4391;48.678;9.280;2022-10-18T07:43:27;5.20;;;2.67;;
8708;SDS011;4391;48.678;9.280;2022-10-18T07:45:54;11.17;;;2.70;;
8708;SDS011;4391;48.678;9.280;2022-10-18T07:48:22;9.80;;;2.80;;
8708;SDS011;4391;48.678;9.280;2022-10-18T07:50:49;9.75;;;2.72;;
8708;SDS011;4391;48.678;9.280;2022-10-18T07:53:16;6.68;;;2.40;;
8708;SDS011;4391;48.678;9.280;2022-10-18T07:55:43;6.80;;;2.85;;
8708;SDS011;4391;48.678;9.280;2022-10-18T07:58:11;7.27;;;3.03;;
8708;SDS011;4391;48.678;9.280;2022-10-18T08:00:37;6.82;;;3.28;;
8708;SDS011;4391;48.678;9.280;2022-10-18T08:03:05;9.43;;;3.20;;
8708;SDS011;4391;48.678;9.280;2022-10-18T08:05:31;10.70;;;3.05;;
8708;SDS011;4391;48.678;9.280;2022-10-18T08:07:58;7.68;;;2.78;;
8708;SDS011;4391;48.678;9.280;2022-10-18T08:10:25;11.50;;;2.77;;
8708;SDS011;4391;48.678;9.280;2022-10-18T08:12:51;10.10;;;2.90;;
8708;SDS011;4391;48.678;9.280;2022-10-18T08:15:20;12.32;;;2.90;;
8708;SDS011;4391;48.678;9.280;2022-10-18T08:17:49;15.00;;;3.65;;
8708;SDS011;4391;48.678;9.280;2022-10-18T08:20:16;13.60;;;3.20;;
8708;SDS011;4391;48.678;9.280;2022-10-18T08:22:43;9.10;;;3.03;;
8708;SDS011;4391;48.678;9.280;2022-10-18T08:25:10;8.02;;;3.40;;
8708;SDS011;4391;48.678;9.280;2022-10-18T08:27:37;10.25;;;2.97;;
8708;SDS011;4391;48.678;9.280;2022-10-18T08:30:04;6.43;;;3.00;;
8708;SDS011;4391;48.678;9.280;2022-10-18T08:32:34;8.15;;;2.70;;
8708;SDS011;4391;48.678;9.280;2022-10-18T08:35:01;6.97;;;2.73;;
8708;SDS011;4391;48.678;9.280;2022-10-18T08:37:28;7.47;;;2.70;;
8708;SDS011;4391;48.678;9.280;2022-10-18T08:39:55;10.07;;;2.67;;
8708;SDS011;4391;48.678;9.280;2022-10-18T08:42:25;8.02;;;2.90;;
8708;SDS011;4391;48.678;9.280;2022-10-18T08:45:03;9.63;;;3.05;;
8708;SDS011;4391;48.678;9.280;2022-10-18T08:47:33;10.53;;;2.40;;
8708;SDS011;4391;48.678;9.280;2022-10-18T08:50:05;7.45;;;2.70;;
8708;SDS011;4391;48.678;9.280;2022-10-18T08:52:33;7.50;;;3.00;;
8708;SDS011;4391;48.678;9.280;2022-10-18T08:55:10;5.30;;;2.40;;
8708;SDS011;4391;48.678;9.280;2022-10-18T08:57:40;11.82;;;2.80;;
8708;SDS011;4391;48.678;9.280;2022-10-18T09:00:12;9.00;;;2.63;;
8708;SDS011;4391;48.678;9.280;2022-10-18T09:02:46;6.18;;;2.58;;
8708;SDS011;4391;48.678;9.280;2022-10-18T09:05:21;5.93;;;2.40;;
8708;SDS011;4391;48.678;9.280;2022-10-18T09:08:06;6.43;;;2.28;;
8708;SDS011;4391;48.678;9.280;2022-10-18T09:10:55;7.63;;;2.38;;
8708;SDS011;4391;48.678;9.280;2022-10-18T09:13:47;7.77;;;2.47;;
8708;SDS011;4391;48.678;9.280;2022-10-18T09:16:38;9.23;;;2.28;;
8708;SDS011;4391;48.678;9.280;2022-10-18T09:19:14;5.80;;;2.45;;
8708;SDS011;4391;48.678;9.280;2022-10-18T09:21:52;6.93;;;2.47;;
8708;SDS011;4391;48.678;9.280;2022-10-18T09:24:21;8.32;;;2.30;;
8708;SDS011;4391;48.678;9.280;2022-10-18T09:26:56;4.13;;;1.90;;
8708;SDS011;4391;48.678;9.280;2022-10-18T09:29:30;6.82;;;2.40;;
8708;SDS011;4391;48.678;9.280;2022-10-18T09:32:13;9.50;;;2.40;;
8708;SDS011;4391;48.678;9.280;2022-10-18T09:34:52;7.45;;;2.55;;
8708;SDS011;4391;48.678;9.280;2022-10-18T09:37:23;8.13;;;2.30;;
8708;SDS011;4391;48.678;9.280;2022-10-18T09:39:54;7.63;;;2.33;;
8708;SDS011;4391;48.678;9.280;2022-10-18T09:42:30;6.65;;;2.30;;
8708;SDS011;4391;48.678;9.280;2022-10-18T09:45:02;6.55;;;2.10;;
8708;SDS011;4391;48.678;9.280;2022-10-18T09:47:32;6.15;;;1.98;;
8708;SDS011;4391;48.678;9.280;2022-10-18T09:50:07;6.00;;;2.10;;
8708;SDS011;4391;48.678;9.280;2022-10-18T09:52:43;8.07;;;2.00;;
8708;SDS011;4391;48.678;9.280;2022-10-18T09:55:17;6.20;;;2.10;;
8708;SDS011;4391;48.678;9.280;2022-10-18T09:57:51;6.97;;;2.30;;
8708;SDS011;4391;48.678;9.280;2022-10-18T10:00:22;4.63;;;2.40;;
8708;SDS011;4391;48.678;9.280;2022-10-18T10:02:53;6.93;;;2.20;;
8708;SDS011;4391;48.678;9.280;2022-10-18T10:05:21;6.23;;;2.20;;
8708;SDS011;4391;48.678;9.280;2022-10-18T10:07:48;9.88;;;2.05;;
8708;SDS011;4391;48.678;9.280;2022-10-18T10:10:22;8.10;;;2.10;;
8708;SDS011;4391;48.678;9.280;2022-10-18T10:13:00;4.35;;;1.75;;
8708;SDS011;4391;48.678;9.280;2022-10-18T10:15:30;5.55;;;1.80;;
8708;SDS011;4391;48.678;9.280;2022-10-18T10:18:01;5.20;;;2.20;;
8708;SDS011;4391;48.678;9.280;2022-10-18T10:20:32;8.38;;;1.90;;
8708;SDS011;4391;48.678;9.280;2022-10-18T10:23:05;6.40;;;2.10;;
8708;SDS011;4391;48.678;9.280;2022-10-18T10:25:35;8.95;;;2.22;;
8708;SDS011;4391;48.678;9.280;2022-10-18T10:28:04;6.55;;;2.50;;
8708;SDS011;4391;48.678;9.280;2022-10-18T10:30:37;6.33;;;2.40;;
8708;SDS011;4391;48.678;9.280;2022-10-18T10:33:04;6.85;;;1.90;;
8708;SDS011;4391;48.678;9.280;2022-10-18T10:35:33;9.18;;;1.95;;
8708;SDS011;4391;48.678;9.280;2022-10-18T10:38:01;7.82;;;2.20;;
8708;SDS011;4391;48.678;9.280;2022-10-18T10:40:29;6.60;;;2.20;;
8708;SDS011;4391;48.678;9.280;2022-10-18T10:43:01;7.67;;;2.23;;
8708;SDS011;4391;48.678;9.280;2022-10-18T10:45:31;6.75;;;2.00;;
8708;SDS011;4391;48.678;9.280;2022-10-18T10:48:01;10.13;;;2.10;;
8708;SDS011;4391;48.678;9.280;2022-10-18T10:50:48;12.52;;;2.40;;
8708;SDS011;4391;48.678;9.280;2022-10-18T10:53:24;8.95;;;2.63;;
8708;SDS011;4391;48.678;9.280;2022-10-18T10:56:01;6.00;;;2.20;;
8708;SDS011;4391;48.678;9.280;2022-10-18T10:58:32;7.95;;;2.10;;
8708;SDS011;4391;48.678;9.280;2022-10-18T11:01:15;7.57;;;1.80;;
8708;SDS011;4391;48.678;9.280;2022-10-18T11:03:48;5.32;;;1.80;;
8708;SDS011;4391;48.678;9.280;2022-10-18T11:06:28;5.28;;;1.88;;
8708;SDS011;4391;48.678;9.280;2022-10-18T11:09:11;4.87;;;1.43;;
8708;SDS011;4391;48.678;9.280;2022-10-18T11:11:51;6.13;;;1.73;;
8708;SDS011;4391;48.678;9.280;2022-10-18T11:14:26;7.13;;;1.70;;
8708;SDS011;4391;48.678;9.280;2022-10-18T11:16:57;5.63;;;1.90;;
8708;SDS011;4391;48.678;9.280;2022-10-18T11:19:33;5.60;;;1.90;;
8708;SDS011;4391;48.678;9.280;2022-10-18T11:22:08;6.22;;;1.80;;
8708;SDS011;4391;48.678;9.280;2022-10-18T11:24:40;8.13;;;1.57;;
8708;SDS011;4391;48.678;9.280;2022-10-18T11:27:09;5.65;;;1.65;;
8708;SDS011;4391;48.678;9.280;2022-10-18T11:29:47;7.28;;;1.73;;
8708;SDS011;4391;48.678;9.280;2022-10-18T11:32:37;6.55;;;1.63;;
8708;SDS011;4391;48.678;9.280;2022-10-18T11:35:14;6.43;;;1.83;;
8708;SDS011;4391;48.678;9.280;2022-10-18T11:37:57;7.70;;;2.03;;
8708;SDS011;4391;48.678;9.280;2022-10-18T11:40:37;8.50;;;2.30;;
8708;SDS011;4391;48.678;9.280;2022-10-18T11:43:15;6.80;;;2.10;;
8708;SDS011;4391;48.678;9.280;2022-10-18T11:45:51;9.95;;;2.53;;
8708;SDS011;4391;48.678;9.280;2022-10-18T11:51:18;8.45;;;2.50;;
8708;SDS011;4391;48.678;9.280;2022-10-18T11:53:56;7.70;;;2.73;;
8708;SDS011;4391;48.678;9.280;2022-10-18T11:56:41;12.07;;;2.90;;
8708;SDS011;4391;48.678;9.280;2022-10-18T11:59:18;9.45;;;2.80;;
8708;SDS011;4391;48.678;9.280;2022-10-18T12:01:56;11.85;;;2.60;;
8708;SDS011;4391;48.678;9.280;2022-10-18T12:04:41;7.03;;;2.67;;
8708;SDS011;4391;48.678;9.280;2022-10-18T12:07:12;5.63;;;2.60;;
8708;SDS011;4391;48.678;9.280;2022-10-18T12:09:43;7.97;;;2.75;;
8708;SDS011;4391;48.678;9.280;2022-10-18T12:12:13;6.55;;;2.42;;
8708;SDS011;4391;48.678;9.280;2022-10-18T12:14:45;13.98;;;2.60;;
8708;SDS011;4391;48.678;9.280;2022-10-18T12:17:16;10.23;;;2.60;;
8708;SDS011;4391;48.678;9.280;2022-10-18T12:19:46;7.90;;;2.57;;
8708;SDS011;4391;48.678;9.280;2022-10-18T12:22:17;6.50;;;3.10;;
8708;SDS011;4391;48.678;9.280;2022-10-18T12:24:49;5.60;;;2.60;;
8708;SDS011;4391;48.678;9.280;2022-10-18T12:27:16;8.70;;;2.72;;
8708;SDS011;4391;48.678;9.280;2022-10-18T12:29:46;9.27;;;2.55;;
8708;SDS011;4391;48.678;9.280;2022-10-18T12:32:17;10.33;;;2.27;;
8708;SDS011;4391;48.678;9.280;2022-10-18T12:34:48;9.85;;;2.45;;
8708;SDS011;4391;48.678;9.280;2022-10-18T12:37:30;7.18;;;2.38;;
8708;SDS011;4391;48.678;9.280;2022-10-18T12:40:21;8.02;;;2.10;;
8708;SDS011;4391;48.678;9.280;2022-10-18T12:42:52;9.27;;;2.00;;
8708;SDS011;4391;48.678;9.280;2022-10-18T12:45:24;6.20;;;2.00;;
8708;SDS011;4391;48.678;9.280;2022-10-18T12:48:00;4.18;;;1.75;;
8708;SDS011;4391;48.678;9.280;2022-10-18T12:50:31;6.05;;;1.58;;
8708;SDS011;4391;48.678;9.280;2022-10-18T12:53:00;10.10;;;1.80;;
8708;SDS011;4391;48.678;9.280;2022-10-18T12:55:35;7.22;;;2.00;;
8708;SDS011;4391;48.678;9.280;2022-10-18T12:58:04;6.60;;;1.70;;
8708;SDS011;4391;48.678;9.280;2022-10-18T13:00:50;8.17;;;1.87;;
8708;SDS011;4391;48.678;9.280;2022-10-18T13:06:24;6.75;;;1.60;;
8708;SDS011;4391;48.678;9.280;2022-10-18T13:09:18;7.43;;;1.85;;
8708;SDS011;4391;48.678;9.280;2022-10-18T13:11:47;10.80;;;1.98;;
8708;SDS011;4391;48.678;9.280;2022-10-18T13:16:44;11.57;;;1.80;;
8708;SDS011;4391;48.678;9.280;2022-10-18T13:19:19;10.60;;;2.53;;
8708;SDS011;4391;48.678;9.280;2022-10-18T13:21:54;9.95;;;2.13;;
8708;SDS011;4391;48.678;9.280;2022-10-18T13:24:34;9.55;;;2.20;;
8708;SDS011;4391;48.678;9.280;2022-10-18T13:27:18;6.38;;;2.00;;
8708;SDS011;4391;48.678;9.280;2022-10-18T13:30:04;8.83;;;2.30;;
8708;SDS011;4391;48.678;9.280;2022-10-18T13:32:46;8.52;;;1.80;;
8708;SDS011;4391;48.678;9.280;2022-10-18T13:38:22;7.82;;;1.80;;
8708;SDS011;4391;48.678;9.280;2022-10-18T13:41:01;10.55;;;2.42;;
8708;SDS011;4391;48.678;9.280;2022-10-18T13:49:46;10.60;;;2.28;;
8708;SDS011;4391;48.678;9.280;2022-10-18T13:52:41;10.80;;;2.63;;
8708;SDS011;4391;48.678;9.280;2022-10-18T13:55:32;7.68;;;2.33;;
8708;SDS011;4391;48.678;9.280;2022-10-18T13:58:14;6.97;;;2.17;;
8708;SDS011;4391;48.678;9.280;2022-10-18T14:00:53;10.48;;;2.53;;
8708;SDS011;4391;48.678;9.280;2022-10-18T14:03:36;7.95;;;2.45;;
8708;SDS011;4391;48.678;9.280;2022-10-18T14:06:08;8.95;;;2.38;;
8708;SDS011;4391;48.678;9.280;2022-10-18T14:08:39;7.47;;;1.85;;
8708;SDS011;4391;48.678;9.280;2022-10-18T14:11:11;6.07;;;2.20;;
8708;SDS011;4391;48.678;9.280;2022-10-18T14:13:53;6.97;;;1.98;;
8708;SDS011;4391;48.678;9.280;2022-10-18T14:16:29;6.72;;;1.80;;
8708;SDS011;4391;48.678;9.280;2022-10-18T14:19:07;5.60;;;1.75;;
8708;SDS011;4391;48.678;9.280;2022-10-18T14:21:43;4.88;;;1.58;;
8708;SDS011;4391;48.678;9.280;2022-10-18T14:24:18;6.23;;;1.60;;
8708;SDS011;4391;48.678;9.280;2022-10-18T14:26:46;5.47;;;1.75;;
8708;SDS011;4391;48.678;9.280;2022-10-18T14:29:17;6.50;;;1.73;;
8708;SDS011;4391;48.678;9.280;2022-10-18T14:31:49;3.22;;;1.23;;
8708;SDS011;4391;48.678;9.280;2022-10-18T14:34:18;6.15;;;1.77;;
8708;SDS011;4391;48.678;9.280;2022-10-18T14:36:47;8.40;;;1.70;;
8708;SDS011;4391;48.678;9.280;2022-10-18T14:39:16;6.45;;;1.58;;
8708;SDS011;4391;48.678;9.280;2022-10-18T14:41:48;5.30;;;1.30;;
8708;SDS011;4391;48.678;9.280;2022-10-18T14:44:17;4.22;;;1.30;;
8708;SDS011;4391;48.678;9.280;2022-10-18T14:46:47;3.53;;;1.30;;
8708;SDS011;4391;48.678;9.280;2022-10-18T14:49:15;6.43;;;1.60;;
8708;SDS011;4391;48.678;9.280;2022-10-18T14:51:44;4.90;;;1.25;;
8708;SDS011;4391;48.678;9.280;2022-10-18T14:54:15;4.32;;;1.33;;
8708;SDS011;4391;48.678;9.280;2022-10-18T14:56:44;3.45;;;1.27;;
8708;SDS011;4391;48.678;9.280;2022-10-18T14:59:12;4.35;;;1.42;;
8708;SDS011;4391;48.678;9.280;2022-10-18T15:01:49;5.90;;;1.50;;
8708;SDS011;4391;48.678;9.280;2022-10-18T15:04:17;4.65;;;1.30;;
8708;SDS011;4391;48.678;9.280;2022-10-18T15:06:45;3.83;;;1.20;;
8708;SDS011;4391;48.678;9.280;2022-10-18T15:09:13;6.95;;;1.58;;
8708;SDS011;4391;48.678;9.280;2022-10-18T15:11:45;6.18;;;1.60;;
8708;SDS011;4391;48.678;9.280;2022-10-18T15:14:13;7.10;;;2.10;;
8708;SDS011;4391;48.678;9.280;2022-10-18T15:16:43;7.88;;;2.10;;
8708;SDS011;4391;48.678;9.280;2022-10-18T15:19:23;7.45;;;1.77;;
8708;SDS011;4391;48.678;9.280;2022-10-18T15:21:55;6.05;;;2.40;;
8708;SDS011;4391;48.678;9.280;2022-10-18T15:24:33;5.40;;;2.10;;
8708;SDS011;4391;48.678;9.280;2022-10-18T15:27:12;5.80;;;2.23;;
8708;SDS011;4391;48.678;9.280;2022-10-18T15:29:43;5.28;;;2.20;;
8708;SDS011;4391;48.678;9.280;2022-10-18T15:32:14;13.57;;;2.63;;
8708;SDS011;4391;48.678;9.280;2022-10-18T15:34:44;5.85;;;2.05;;
8708;SDS011;4391;48.678;9.280;2022-10-18T15:37:25;7.82;;;2.50;;
8708;SDS011;4391;48.678;9.280;2022-10-18T15:40:15;8.97;;;2.20;;
8708;SDS011;4391;48.678;9.280;2022-10-18T15:43:00;10.00;;;2.25;;
8708;SDS011;4391;48.678;9.280;2022-10-18T15:45:31;5.32;;;2.03;;
8708;SDS011;4391;48.678;9.280;2022-10-18T15:48:01;5.68;;;1.90;;
8708;SDS011;4391;48.678;9.280;2022-10-18T15:50:42;7.07;;;2.35;;
8708;SDS011;4391;48.678;9.280;2022-10-18T15:56:29;10.85;;;2.75;;
8708;SDS011;4391;48.678;9.280;2022-10-18T15:58:57;6.25;;;2.00;;
8708;SDS011;4391;48.678;9.280;2022-10-18T16:01:30;4.72;;;2.30;;
8708;SDS011;4391;48.678;9.280;2022-10-18T16:04:01;4.57;;;1.95;;